createdAt,value
2023-01-13T00:01:29.543Z,0.80
2023-01-13T00:03:57.630Z,0.80
2023-01-13T00:06:26.271Z,0.40
2023-01-13T00:08:54.582Z,1.02
2023-01-13T00:11:23.131Z,0.70
2023-01-13T00:13:50.564Z,0.80
2023-01-13T00:16:20.788Z,0.55
2023-01-13T00:18:51.196Z,0.70
2023-01-13T00:21:24.467Z,0.50
2023-01-13T00:23:55.876Z,0.80
2023-01-13T00:26:30.587Z,0.57
2023-01-13T00:29:00.322Z,0.70
2023-01-13T00:31:30.003Z,0.60
2023-01-13T00:34:00.358Z,0.65
2023-01-13T00:36:29.317Z,0.60
2023-01-13T00:38:57.685Z,0.63
2023-01-13T00:41:26.795Z,1.00
2023-01-13T00:43:54.072Z,0.80
2023-01-13T00:46:22.782Z,0.50
2023-01-13T00:48:51.455Z,0.63
2023-01-13T00:51:21.467Z,0.90
2023-01-13T00:53:52.083Z,0.70
2023-01-13T00:56:39.864Z,0.52
2023-01-13T00:59:12.614Z,0.75
2023-01-13T01:01:43.673Z,0.75
2023-01-13T01:04:12.122Z,0.68
2023-01-13T01:06:39.538Z,0.70
2023-01-13T01:09:07.432Z,0.65
2023-01-13T01:11:35.444Z,0.47
2023-01-13T01:14:04.648Z,0.60
2023-01-13T01:16:34.123Z,0.55
2023-01-13T01:19:02.513Z,0.57
2023-01-13T01:21:29.924Z,0.60
2023-01-13T01:24:02.352Z,0.80
2023-01-13T01:26:31.731Z,1.27
2023-01-13T01:29:02.016Z,1.27
2023-01-13T01:31:33.515Z,1.20
2023-01-13T01:34:01.730Z,0.60
2023-01-13T01:36:33.343Z,0.70
2023-01-13T01:39:00.873Z,0.55
2023-01-13T01:41:33.024Z,0.50
2023-01-13T01:44:43.437Z,0.80
2023-01-13T01:47:18.372Z,0.40
2023-01-13T01:49:46.920Z,0.60
2023-01-13T01:52:34.480Z,0.60
2023-01-13T01:55:33.739Z,0.70
2023-01-13T01:58:22.536Z,0.63
2023-01-13T02:00:49.880Z,0.45
2023-01-13T02:03:18.672Z,0.43
2023-01-13T02:05:45.929Z,0.70
2023-01-13T02:08:19.566Z,0.70
2023-01-13T02:10:54.046Z,0.60
2023-01-13T02:13:23.077Z,0.60
2023-01-13T02:16:24.351Z,0.70
2023-01-13T02:19:53.400Z,0.70
2023-01-13T02:23:05.754Z,0.70
2023-01-13T02:26:03.876Z,0.50
2023-01-13T02:29:42.381Z,0.63
2023-01-13T02:32:39.883Z,0.90
2023-01-13T02:35:51.484Z,0.60
2023-01-13T02:38:33.591Z,0.70
2023-01-13T02:41:31.628Z,0.50
2023-01-13T02:44:06.989Z,0.60
2023-01-13T02:46:56.283Z,0.52
2023-01-13T02:49:39.071Z,0.52
2023-01-13T02:52:21.940Z,0.60
2023-01-13T02:54:59.208Z,0.65
2023-01-13T02:57:29.951Z,0.50
2023-01-13T02:59:57.952Z,0.60
2023-01-13T03:02:26.339Z,0.90
2023-01-13T03:04:59.742Z,0.80
2023-01-13T03:08:23.721Z,0.70
2023-01-13T03:11:19.968Z,0.70
2023-01-13T03:14:22.562Z,0.60
2023-01-13T03:17:22.527Z,0.70
2023-01-13T03:20:06.443Z,0.77
2023-01-13T03:22:47.012Z,0.60
2023-01-13T03:25:36.749Z,0.60
2023-01-13T03:28:25.945Z,0.63
2023-01-13T03:31:24.793Z,0.70
2023-01-13T03:34:03.825Z,0.80
2023-01-13T03:36:36.525Z,0.80
2023-01-13T03:39:19.196Z,0.90
2023-01-13T03:42:01.042Z,0.70
2023-01-13T03:44:47.712Z,0.50
2023-01-13T03:47:41.164Z,0.70
2023-01-13T03:50:31.130Z,0.60
2023-01-13T03:53:11.591Z,0.55
2023-01-13T03:55:48.995Z,0.70
2023-01-13T03:58:44.345Z,0.50
2023-01-13T04:01:54.437Z,0.60
2023-01-13T04:04:57.903Z,0.82
2023-01-13T04:08:21.444Z,0.70
2023-01-13T04:11:07.605Z,0.90
2023-01-13T04:13:42.044Z,0.60
2023-01-13T04:16:12.066Z,0.70
2023-01-13T04:18:40.348Z,0.47
2023-01-13T04:21:08.754Z,0.40
2023-01-13T04:23:35.982Z,0.80
2023-01-13T04:26:03.880Z,0.50
2023-01-13T04:28:31.233Z,0.60
2023-01-13T04:30:58.438Z,0.47
2023-01-13T04:33:25.767Z,0.57
2023-01-13T04:35:53.325Z,0.40
2023-01-13T04:38:22.110Z,0.60
2023-01-13T04:40:49.596Z,0.50
2023-01-13T04:43:17.663Z,0.52
2023-01-13T04:45:45.601Z,0.35
2023-01-13T04:48:13.608Z,0.50
2023-01-13T04:50:41.718Z,0.52
2023-01-13T04:53:09.073Z,0.43
2023-01-13T04:55:36.503Z,0.55
2023-01-13T04:58:10.530Z,0.43
2023-01-13T05:00:39.033Z,0.30
2023-01-13T05:03:06.463Z,0.45
2023-01-13T05:05:34.271Z,0.45
2023-01-13T05:08:01.903Z,0.70
2023-01-13T05:10:29.463Z,0.40
2023-01-13T05:13:15.719Z,0.60
2023-01-13T05:16:02.710Z,0.50
2023-01-13T05:18:31.703Z,0.43
2023-01-13T05:20:59.210Z,0.70
2023-01-13T05:23:45.346Z,0.60
2023-01-13T05:26:12.616Z,0.30
2023-01-13T05:28:39.871Z,0.63
2023-01-13T05:31:07.231Z,0.40
2023-01-13T05:33:35.846Z,0.50
2023-01-13T05:36:04.430Z,0.50
2023-01-13T05:38:34.317Z,0.40
2023-01-13T05:41:20.588Z,0.30
2023-01-13T05:43:48.022Z,0.28
2023-01-13T05:46:17.697Z,0.40
2023-01-13T05:48:45.514Z,0.50
2023-01-13T05:51:14.000Z,0.43
2023-01-13T05:53:41.786Z,0.40
2023-01-13T05:56:11.289Z,0.40
2023-01-13T05:58:38.707Z,0.45
2023-01-13T06:01:09.794Z,0.40
2023-01-13T06:03:38.111Z,0.50
2023-01-13T06:06:08.798Z,0.45
2023-01-13T06:08:38.042Z,0.40
2023-01-13T06:11:06.729Z,0.60
2023-01-13T06:13:34.043Z,0.40
2023-01-13T06:16:01.405Z,0.25
2023-01-13T06:18:29.631Z,0.45
2023-01-13T06:20:57.560Z,0.50
2023-01-13T06:23:25.026Z,0.30
2023-01-13T06:26:19.552Z,0.45
2023-01-13T06:28:46.888Z,0.30
2023-01-13T06:31:14.431Z,0.40
2023-01-13T06:33:53.891Z,0.35
2023-01-13T06:36:29.488Z,0.25
2023-01-13T06:39:02.541Z,0.30
2023-01-13T06:41:52.234Z,0.30
2023-01-13T06:44:21.682Z,0.50
2023-01-13T06:46:49.187Z,0.28
2023-01-13T06:49:16.777Z,0.40
2023-01-13T06:51:44.226Z,0.52
2023-01-13T06:54:30.561Z,0.20
2023-01-13T06:56:57.849Z,0.68
2023-01-13T06:59:25.856Z,0.93
2023-01-13T07:01:53.483Z,0.43
2023-01-13T07:04:20.837Z,0.40
2023-01-13T07:06:48.114Z,0.40
2023-01-13T07:09:15.384Z,0.45
2023-01-13T07:11:47.270Z,0.40
2023-01-13T07:14:33.664Z,0.35
2023-01-13T07:17:00.882Z,0.40
2023-01-13T07:19:28.325Z,0.43
2023-01-13T07:21:55.760Z,0.50
2023-01-13T07:24:23.111Z,0.30
2023-01-13T07:26:52.536Z,0.50
2023-01-13T07:29:19.977Z,0.60
2023-01-13T07:31:49.852Z,0.50
2023-01-13T07:34:17.683Z,0.30
2023-01-13T07:36:44.917Z,0.50
2023-01-13T07:39:12.148Z,0.35
2023-01-13T07:41:58.519Z,0.40
2023-01-13T07:44:25.919Z,0.55
2023-01-13T07:46:53.347Z,0.40
2023-01-13T07:49:20.559Z,0.35
2023-01-13T07:51:47.862Z,0.30
2023-01-13T07:54:15.259Z,0.25
2023-01-13T07:56:42.784Z,0.30
2023-01-13T07:59:09.979Z,0.30
2023-01-13T08:01:37.652Z,0.40
2023-01-13T08:04:05.352Z,0.52
2023-01-13T08:06:33.091Z,0.40
2023-01-13T08:09:00.588Z,0.40
2023-01-13T08:11:28.127Z,0.30
2023-01-13T08:14:00.475Z,0.40
2023-01-13T08:16:28.321Z,0.22
2023-01-13T08:18:55.973Z,0.40
2023-01-13T08:21:23.398Z,0.50
2023-01-13T08:23:51.190Z,0.40
2023-01-13T08:26:19.106Z,0.40
2023-01-13T08:28:46.757Z,0.40
2023-01-13T08:31:17.122Z,0.52
2023-01-13T08:33:44.626Z,0.30
2023-01-13T08:36:13.345Z,0.40
2023-01-13T08:38:42.054Z,0.30
2023-01-13T08:41:36.701Z,0.60
2023-01-13T08:44:06.585Z,0.50
2023-01-13T08:46:33.877Z,0.50
2023-01-13T08:49:01.445Z,0.50
2023-01-13T08:51:28.833Z,0.40
2023-01-13T08:53:56.535Z,0.50
2023-01-13T08:56:24.084Z,0.47
2023-01-13T08:58:51.467Z,0.38
2023-01-13T09:01:23.420Z,0.50
2023-01-13T09:03:51.539Z,0.40
2023-01-13T09:06:19.962Z,0.50
2023-01-13T09:08:48.174Z,0.40
2023-01-13T09:11:57.433Z,0.60
2023-01-13T09:14:28.416Z,0.50
2023-01-13T09:16:56.245Z,0.55
2023-01-13T09:19:23.853Z,0.70
2023-01-13T09:21:52.610Z,0.60
2023-01-13T09:24:20.985Z,0.40
2023-01-13T09:26:49.008Z,0.70
2023-01-13T09:29:17.563Z,0.70
2023-01-13T09:31:45.500Z,0.45
2023-01-13T09:34:40.133Z,0.60
2023-01-13T09:37:08.985Z,0.70
2023-01-13T09:39:37.158Z,0.65
2023-01-13T09:43:16.245Z,0.60
2023-01-13T09:46:47.037Z,0.63
2023-01-13T09:49:33.725Z,0.60
2023-01-13T09:52:09.268Z,0.50
2023-01-13T09:55:10.998Z,0.75
2023-01-13T09:57:39.948Z,0.70
2023-01-13T10:00:27.871Z,0.60
2023-01-13T10:03:20.806Z,0.60
2023-01-13T10:06:31.621Z,0.70
2023-01-13T10:08:59.250Z,0.60
2023-01-13T10:11:57.145Z,0.60
2023-01-13T10:14:34.312Z,0.73
2023-01-13T10:17:21.426Z,0.32
2023-01-13T10:20:53.726Z,0.28
2023-01-13T10:23:37.916Z,0.45
2023-01-13T10:26:42.390Z,0.70
2023-01-13T10:29:28.839Z,0.60
2023-01-13T10:31:59.938Z,0.70
2023-01-13T10:34:29.683Z,0.80
2023-01-13T10:37:08.356Z,0.70
2023-01-13T10:39:44.497Z,1.00
2023-01-13T10:42:18.352Z,0.80
2023-01-13T10:45:00.192Z,0.70
2023-01-13T10:47:33.798Z,0.70
2023-01-13T10:50:13.047Z,0.50
2023-01-13T10:53:00.881Z,0.50
2023-01-13T10:55:33.626Z,0.50
2023-01-13T10:58:21.573Z,0.80
2023-01-13T11:00:59.836Z,0.88
2023-01-13T11:03:37.641Z,1.00
2023-01-13T11:06:05.798Z,0.60
2023-01-13T11:08:45.692Z,0.60
2023-01-13T11:11:35.121Z,0.52
2023-01-13T11:14:33.031Z,0.52
2023-01-13T11:17:32.233Z,0.60
2023-01-13T11:20:32.478Z,0.60
2023-01-13T11:23:25.391Z,0.70
2023-01-13T11:26:05.570Z,0.50
2023-01-13T11:29:02.809Z,0.77
2023-01-13T11:31:41.220Z,0.70
2023-01-13T11:34:32.644Z,0.90
2023-01-13T11:37:25.924Z,0.70
2023-01-13T11:40:12.213Z,0.60
2023-01-13T11:43:12.938Z,0.75
2023-01-13T11:45:53.566Z,1.00
2023-01-13T11:48:27.605Z,0.60
2023-01-13T11:51:04.632Z,0.70
2023-01-13T11:54:46.304Z,0.60
2023-01-13T11:57:38.890Z,0.70
2023-01-13T12:00:44.780Z,0.50
2023-01-13T12:03:42.036Z,0.60
2023-01-13T12:06:38.239Z,0.73
2023-01-13T12:09:37.432Z,0.70
2023-01-13T12:12:49.321Z,0.73
2023-01-13T12:15:52.060Z,0.60
2023-01-13T12:19:07.540Z,0.60
2023-01-13T12:22:27.675Z,0.60
2023-01-13T12:25:39.630Z,0.70
2023-01-13T12:29:03.686Z,0.80
2023-01-13T12:31:37.119Z,0.47
2023-01-13T12:35:01.837Z,0.50
2023-01-13T12:38:29.938Z,0.50
2023-01-13T12:41:30.772Z,0.68
2023-01-13T12:44:17.567Z,0.50
2023-01-13T12:46:56.224Z,0.30
2023-01-13T12:49:36.231Z,0.50
2023-01-13T12:52:15.627Z,0.50
2023-01-13T12:54:43.529Z,0.65
2023-01-13T12:57:28.205Z,0.45
2023-01-13T13:00:17.104Z,0.68
2023-01-13T13:03:18.604Z,0.68
2023-01-13T13:06:10.726Z,1.00
2023-01-13T13:09:06.589Z,0.70
2023-01-13T13:11:59.512Z,0.60
2023-01-13T13:14:42.207Z,0.90
2023-01-13T13:17:28.486Z,0.80
2023-01-13T13:20:01.427Z,1.10
2023-01-13T13:22:28.775Z,0.90
2023-01-13T13:24:56.393Z,0.95
2023-01-13T13:28:09.771Z,1.40
2023-01-13T13:30:54.947Z,1.50
2023-01-13T13:33:36.578Z,1.30
2023-01-13T13:37:25.147Z,1.42
2023-01-13T13:40:12.354Z,1.40
2023-01-13T13:43:15.460Z,1.10
2023-01-13T13:46:11.405Z,1.10
2023-01-13T13:48:39.229Z,1.52
2023-01-13T13:51:40.870Z,1.60
2023-01-13T13:54:21.015Z,1.40
2023-01-13T13:56:52.124Z,1.30
2023-01-13T13:59:30.480Z,1.00
2023-01-13T14:02:02.179Z,1.33
2023-01-13T14:04:35.483Z,1.02
2023-01-13T14:07:21.108Z,1.45
2023-01-13T14:09:54.496Z,1.13
2023-01-13T14:12:27.482Z,1.35
2023-01-13T14:14:57.545Z,1.20
2023-01-13T14:17:31.051Z,1.08
2023-01-13T14:20:04.998Z,1.40
2023-01-13T14:22:33.165Z,3.70
2023-01-13T14:25:02.081Z,3.13
2023-01-13T14:27:31.218Z,2.15
2023-01-13T14:30:03.262Z,2.58
2023-01-13T14:32:36.811Z,3.25
2023-01-13T14:35:08.906Z,2.83
2023-01-13T14:37:42.967Z,2.50
2023-01-13T14:40:36.279Z,2.70
2023-01-13T14:43:14.489Z,2.60
2023-01-13T14:46:00.630Z,2.35
2023-01-13T14:48:35.953Z,1.90
2023-01-13T14:51:11.628Z,1.58
2023-01-13T14:53:48.147Z,1.17
2023-01-13T14:56:53.888Z,1.25
2023-01-13T14:59:44.129Z,1.23
2023-01-13T15:02:40.258Z,1.30
2023-01-13T15:05:20.194Z,1.27
2023-01-13T15:08:09.887Z,1.58
2023-01-13T15:11:01.118Z,1.17
2023-01-13T15:13:53.006Z,1.63
2023-01-13T15:16:28.082Z,1.45
2023-01-13T15:18:57.004Z,1.50
2023-01-13T15:21:25.438Z,1.67
2023-01-13T15:23:53.207Z,1.83
2023-01-13T15:26:30.207Z,2.05
2023-01-13T15:28:59.394Z,1.40
2023-01-13T15:31:28.549Z,1.65
2023-01-13T15:33:56.164Z,1.23
2023-01-13T15:36:34.777Z,1.95
2023-01-13T15:39:02.735Z,1.58
2023-01-13T15:41:49.126Z,1.40
2023-01-13T15:44:36.169Z,1.23
2023-01-13T15:47:08.569Z,1.45
2023-01-13T15:49:45.804Z,1.33
2023-01-13T15:52:26.913Z,1.30
2023-01-13T15:54:55.558Z,1.50
2023-01-13T15:57:31.550Z,1.30
2023-01-13T16:00:14.439Z,1.30
2023-01-13T16:02:44.456Z,2.15
2023-01-13T16:05:12.371Z,1.48
2023-01-13T16:07:40.128Z,1.60
2023-01-13T16:10:23.151Z,2.10
2023-01-13T16:12:51.142Z,1.90
2023-01-13T16:15:22.962Z,2.28
2023-01-13T16:18:02.094Z,2.15
2023-01-13T16:20:30.780Z,2.42
2023-01-13T16:22:58.190Z,3.10
2023-01-13T16:25:27.676Z,2.97
2023-01-13T16:27:55.170Z,4.68
2023-01-13T16:30:34.340Z,4.18
2023-01-13T16:33:03.416Z,4.82
2023-01-13T16:35:35.317Z,4.22
2023-01-13T16:38:02.896Z,3.97
2023-01-13T16:40:36.670Z,9.25
2023-01-13T16:43:06.836Z,4.60
2023-01-13T16:45:34.813Z,4.65
2023-01-13T16:48:03.120Z,3.90
2023-01-13T16:50:37.630Z,5.85
2023-01-13T16:53:06.315Z,12.25
2023-01-13T16:55:33.872Z,9.43
2023-01-13T16:58:02.360Z,11.70
2023-01-13T17:00:31.179Z,9.80
2023-01-13T17:03:01.325Z,16.35
2023-01-13T17:05:29.317Z,7.13
2023-01-13T17:07:57.551Z,8.45
2023-01-13T17:10:26.578Z,10.52
2023-01-13T17:13:00.039Z,9.40
2023-01-13T17:15:34.300Z,4.05
2023-01-13T17:18:11.878Z,5.70
2023-01-13T17:20:39.928Z,5.82
2023-01-13T17:23:07.403Z,6.90
2023-01-13T17:25:35.114Z,13.65
2023-01-13T17:28:03.939Z,13.55
2023-01-13T17:30:34.453Z,9.20
2023-01-13T17:33:01.814Z,7.20
2023-01-13T17:35:29.141Z,7.18
2023-01-13T17:38:04.184Z,6.72
2023-01-13T17:40:31.497Z,5.50
2023-01-13T17:42:59.024Z,5.05
2023-01-13T17:45:26.534Z,6.28
2023-01-13T17:48:14.379Z,5.68
2023-01-13T17:50:55.822Z,4.85
2023-01-13T17:53:23.387Z,4.60
2023-01-13T17:55:56.473Z,5.95
2023-01-13T17:58:24.388Z,5.45
2023-01-13T18:00:53.616Z,4.60
2023-01-13T18:03:21.594Z,3.83
2023-01-13T18:05:54.434Z,4.18
2023-01-13T18:08:23.653Z,6.70
2023-01-13T18:11:00.718Z,5.22
2023-01-13T18:13:34.797Z,5.28
2023-01-13T18:16:11.816Z,4.82
2023-01-13T18:18:44.535Z,3.80
2023-01-13T18:21:46.022Z,2.70
2023-01-13T18:24:36.028Z,3.92
2023-01-13T18:27:18.993Z,3.72
2023-01-13T18:29:47.488Z,2.38
2023-01-13T18:32:15.797Z,2.00
2023-01-13T18:34:43.833Z,2.25
2023-01-13T18:37:16.513Z,2.28
2023-01-13T18:39:44.575Z,21.67
2023-01-13T18:42:31.037Z,6.60
2023-01-13T18:45:21.101Z,6.97
2023-01-13T18:48:20.144Z,4.68
2023-01-13T18:50:47.493Z,2.22
2023-01-13T18:53:14.929Z,1.98
2023-01-13T18:55:43.260Z,2.30
2023-01-13T18:58:11.013Z,3.83
2023-01-13T19:00:38.699Z,2.00
2023-01-13T19:05:39.304Z,18.67
2023-01-13T19:08:07.123Z,6.15
2023-01-13T19:10:34.977Z,10.68
2023-01-13T19:13:03.229Z,1.55
2023-01-13T19:15:41.627Z,0.93
2023-01-13T19:18:09.323Z,1.25
2023-01-13T19:20:38.441Z,1.05
2023-01-13T19:23:08.468Z,1.10
2023-01-13T19:25:37.462Z,1.20
2023-01-13T19:28:09.342Z,1.58
2023-01-13T19:30:41.734Z,1.20
2023-01-13T19:33:11.668Z,1.30
2023-01-13T19:35:39.501Z,1.00
2023-01-13T19:38:07.193Z,1.30
2023-01-13T19:40:35.085Z,1.50
2023-01-13T19:43:23.789Z,1.40
2023-01-13T19:45:52.214Z,1.83
2023-01-13T19:48:21.176Z,1.55
2023-01-13T19:50:49.724Z,1.50
2023-01-13T19:53:18.038Z,1.30
2023-01-13T19:55:48.669Z,1.80
2023-01-13T19:58:18.942Z,1.25
2023-01-13T20:00:48.162Z,1.30
2023-01-13T20:03:26.201Z,1.08
2023-01-13T20:05:55.381Z,1.17
2023-01-13T20:08:23.767Z,1.40
2023-01-13T20:11:11.201Z,0.90
2023-01-13T20:13:38.681Z,1.38
2023-01-13T20:16:06.797Z,1.60
2023-01-13T20:18:36.585Z,1.20
2023-01-13T20:21:06.818Z,1.25
2023-01-13T20:23:34.164Z,1.45
2023-01-13T20:26:02.428Z,1.20
2023-01-13T20:28:29.919Z,1.08
2023-01-13T20:30:57.504Z,1.08
2023-01-13T20:33:24.883Z,1.15
2023-01-13T20:35:59.680Z,1.48
2023-01-13T20:38:36.056Z,0.93
2023-01-13T20:42:14.052Z,1.00
2023-01-13T20:48:21.602Z,1.27
2023-01-13T20:50:54.354Z,1.17
2023-01-13T20:53:21.684Z,1.95
2023-01-13T20:55:49.246Z,1.30
2023-01-13T20:58:16.677Z,2.03
2023-01-13T21:00:44.498Z,3.47
2023-01-13T21:03:15.018Z,1.60
2023-01-13T21:05:42.743Z,2.60
2023-01-13T21:08:10.087Z,2.30
2023-01-13T21:10:37.746Z,1.60
2023-01-13T21:13:31.937Z,1.17
2023-01-13T21:15:59.783Z,1.55
2023-01-13T21:18:45.956Z,1.50
2023-01-13T21:21:13.378Z,1.38
2023-01-13T21:23:47.456Z,1.58
2023-01-13T21:26:15.774Z,1.50
2023-01-13T21:28:43.230Z,1.42
2023-01-13T21:31:11.469Z,1.25
2023-01-13T21:33:39.471Z,1.80
2023-01-13T21:36:15.302Z,1.80
2023-01-13T21:38:43.092Z,1.83
2023-01-13T21:41:13.108Z,1.88
2023-01-13T21:44:00.147Z,1.50
2023-01-13T21:46:49.458Z,1.80
2023-01-13T21:49:17.436Z,2.00
2023-01-13T21:51:45.139Z,1.85
2023-01-13T21:54:18.064Z,2.15
2023-01-13T21:56:45.981Z,2.10
2023-01-13T21:59:13.290Z,1.75
2023-01-13T22:02:08.741Z,1.85
2023-01-13T22:04:28.521Z,1.98
2023-01-13T22:06:56.284Z,2.28
2023-01-13T22:09:24.175Z,3.10
2023-01-13T22:11:51.623Z,2.97
2023-01-13T22:14:24.788Z,2.65
2023-01-13T22:16:53.600Z,2.90
2023-01-13T22:19:20.987Z,2.10
2023-01-13T22:21:48.227Z,3.25
2023-01-13T22:24:15.680Z,2.83
2023-01-13T22:26:45.737Z,2.58
2023-01-13T22:29:13.203Z,3.05
2023-01-13T22:31:40.459Z,3.03
2023-01-13T22:34:07.791Z,3.38
2023-01-13T22:36:35.000Z,2.60
2023-01-13T22:39:02.414Z,2.95
2023-01-13T22:41:29.786Z,3.90
2023-01-13T22:43:59.552Z,2.70
2023-01-13T22:46:27.130Z,3.08
2023-01-13T22:48:55.898Z,2.80
2023-01-13T22:51:23.636Z,2.90
2023-01-13T22:53:51.207Z,2.80
2023-01-13T22:56:33.358Z,3.47
2023-01-13T22:59:04.245Z,2.97
2023-01-13T23:01:35.482Z,2.45
2023-01-13T23:04:03.891Z,2.80
2023-01-13T23:06:34.611Z,2.67
2023-01-13T23:09:05.187Z,2.25
2023-01-13T23:11:32.688Z,2.60
2023-01-13T23:14:05.278Z,2.45
2023-01-13T23:16:37.704Z,2.85
2023-01-13T23:19:07.697Z,2.90
2023-01-13T23:21:37.701Z,2.83
2023-01-13T23:24:06.970Z,2.90
2023-01-13T23:26:35.632Z,2.70
2023-01-13T23:29:08.765Z,3.70
2023-01-13T23:31:36.241Z,2.65
2023-01-13T23:34:03.649Z,2.75
2023-01-13T23:36:31.256Z,3.63
2023-01-13T23:39:00.141Z,3.13
2023-01-13T23:41:28.491Z,3.13
2023-01-13T23:44:00.872Z,3.25
2023-01-13T23:46:31.137Z,3.10
2023-01-13T23:48:58.496Z,2.83
2023-01-13T23:51:27.485Z,3.15
2023-01-13T23:53:54.942Z,3.45
2023-01-13T23:56:31.563Z,3.22
2023-01-13T23:58:59.146Z,3.15
